Airport View

Enter AWOS ICAO identifier for current METAR.

ex. KFNL

KSET 221754Z AUTO A3003 RMK AO2 SLPNO 54000 PWINO $

22 Jul 2019 18:14

Frequency: 118.075

Phone: 636-250-4590

Other Area AWOS: KSTL - KALN - KSUS - KCPS

TAF KSTL 221720Z 2218/2324 02011KT P6SM FEW060 FM230000 01008KT P6SM SKC